sensor_id;sensor_type;location;lat;lon;timestamp;P1;durP1;ratioP1;P2;durP2;ratioP2
66609;SDS011;53468;48.276;14.416;2022-12-18T00:03:00;62.72;;;28.00;;
66609;SDS011;53468;48.276;14.416;2022-12-18T00:08:32;62.25;;;27.20;;
66609;SDS011;53468;48.276;14.416;2022-12-18T00:14:05;61.33;;;25.92;;
66609;SDS011;53468;48.276;14.416;2022-12-18T00:19:37;55.15;;;21.90;;
66609;SDS011;53468;48.276;14.416;2022-12-18T00:25:10;61.55;;;24.23;;
66609;SDS011;53468;48.276;14.416;2022-12-18T00:30:43;52.28;;;23.73;;
66609;SDS011;53468;48.276;14.416;2022-12-18T00:36:16;45.38;;;20.67;;
66609;SDS011;53468;48.276;14.416;2022-12-18T00:41:49;41.60;;;18.05;;
66609;SDS011;53468;48.276;14.416;2022-12-18T00:47:39;38.03;;;17.38;;
66609;SDS011;53468;48.276;14.416;2022-12-18T00:53:12;38.38;;;17.30;;
66609;SDS011;53468;48.276;14.416;2022-12-18T00:58:44;31.17;;;15.20;;
66609;SDS011;53468;48.276;14.416;2022-12-18T01:04:18;37.65;;;16.17;;
66609;SDS011;53468;48.276;14.416;2022-12-18T01:09:50;38.15;;;15.35;;
66609;SDS011;53468;48.276;14.416;2022-12-18T01:15:22;36.00;;;16.65;;
66609;SDS011;53468;48.276;14.416;2022-12-18T01:20:56;39.20;;;17.70;;
66609;SDS011;53468;48.276;14.416;2022-12-18T01:26:28;38.92;;;17.77;;
66609;SDS011;53468;48.276;14.416;2022-12-18T01:32:00;50.65;;;19.77;;
66609;SDS011;53468;48.276;14.416;2022-12-18T01:37:34;39.22;;;17.75;;
66609;SDS011;53468;48.276;14.416;2022-12-18T01:43:08;36.40;;;16.40;;
66609;SDS011;53468;48.276;14.416;2022-12-18T01:48:40;43.60;;;18.50;;
66609;SDS011;53468;48.276;14.416;2022-12-18T01:54:15;49.67;;;21.05;;
66609;SDS011;53468;48.276;14.416;2022-12-18T01:59:49;45.88;;;21.60;;
66609;SDS011;53468;48.276;14.416;2022-12-18T02:05:26;67.05;;;18.83;;
66609;SDS011;53468;48.276;14.416;2022-12-18T02:11:07;94.38;;;20.92;;
66609;SDS011;53468;48.276;14.416;2022-12-18T02:16:46;56.80;;;17.08;;
66609;SDS011;53468;48.276;14.416;2022-12-18T02:22:26;74.60;;;17.15;;
66609;SDS011;53468;48.276;14.416;2022-12-18T02:28:03;27.95;;;13.73;;
66609;SDS011;53468;48.276;14.416;2022-12-18T02:33:40;21.45;;;11.38;;
66609;SDS011;53468;48.276;14.416;2022-12-18T02:39:15;22.77;;;10.23;;
66609;SDS011;53468;48.276;14.416;2022-12-18T02:44:50;21.48;;;9.70;;
66609;SDS011;53468;48.276;14.416;2022-12-18T02:50:25;19.40;;;9.10;;
66609;SDS011;53468;48.276;14.416;2022-12-18T02:56:06;22.15;;;9.88;;
66609;SDS011;53468;48.276;14.416;2022-12-18T03:01:45;19.98;;;7.53;;
66609;SDS011;53468;48.276;14.416;2022-12-18T03:07:27;14.00;;;6.72;;
66609;SDS011;53468;48.276;14.416;2022-12-18T03:13:07;12.67;;;5.90;;
66609;SDS011;53468;48.276;14.416;2022-12-18T03:18:46;16.23;;;6.95;;
66609;SDS011;53468;48.276;14.416;2022-12-18T03:24:20;17.90;;;7.63;;
66609;SDS011;53468;48.276;14.416;2022-12-18T03:29:54;9.82;;;5.93;;
66609;SDS011;53468;48.276;14.416;2022-12-18T03:35:39;14.63;;;7.32;;
66609;SDS011;53468;48.276;14.416;2022-12-18T03:41:15;21.10;;;8.23;;
66609;SDS011;53468;48.276;14.416;2022-12-18T03:46:54;14.20;;;7.00;;
66609;SDS011;53468;48.276;14.416;2022-12-18T03:52:35;11.13;;;5.97;;
66609;SDS011;53468;48.276;14.416;2022-12-18T03:58:09;16.48;;;7.40;;
66609;SDS011;53468;48.276;14.416;2022-12-18T04:03:44;15.32;;;6.68;;
66609;SDS011;53468;48.276;14.416;2022-12-18T04:09:20;13.77;;;6.95;;
66609;SDS011;53468;48.276;14.416;2022-12-18T04:14:52;9.95;;;5.97;;
66609;SDS011;53468;48.276;14.416;2022-12-18T04:20:25;11.88;;;6.18;;
66609;SDS011;53468;48.276;14.416;2022-12-18T04:25:58;10.90;;;5.05;;
66609;SDS011;53468;48.276;14.416;2022-12-18T04:31:30;14.60;;;5.30;;
66609;SDS011;53468;48.276;14.416;2022-12-18T04:37:02;19.30;;;6.28;;
66609;SDS011;53468;48.276;14.416;2022-12-18T04:42:36;14.20;;;6.97;;
66609;SDS011;53468;48.276;14.416;2022-12-18T04:48:08;15.13;;;5.75;;
66609;SDS011;53468;48.276;14.416;2022-12-18T04:53:40;12.15;;;6.28;;
66609;SDS011;53468;48.276;14.416;2022-12-18T04:59:14;10.65;;;4.82;;
66609;SDS011;53468;48.276;14.416;2022-12-18T05:04:46;10.65;;;4.43;;
66609;SDS011;53468;48.276;14.416;2022-12-18T05:10:18;11.32;;;5.68;;
66609;SDS011;53468;48.276;14.416;2022-12-18T05:15:52;16.27;;;5.60;;
66609;SDS011;53468;48.276;14.416;2022-12-18T05:21:25;8.93;;;4.75;;
66609;SDS011;53468;48.276;14.416;2022-12-18T05:26:57;12.57;;;5.38;;
66609;SDS011;53468;48.276;14.416;2022-12-18T05:32:31;13.98;;;5.90;;
66609;SDS011;53468;48.276;14.416;2022-12-18T05:38:03;15.23;;;6.07;;
66609;SDS011;53468;48.276;14.416;2022-12-18T05:43:35;10.77;;;6.15;;
66609;SDS011;53468;48.276;14.416;2022-12-18T05:49:09;12.88;;;5.72;;
66609;SDS011;53468;48.276;14.416;2022-12-18T05:54:41;8.93;;;4.25;;
66609;SDS011;53468;48.276;14.416;2022-12-18T06:00:14;20.38;;;5.05;;
66609;SDS011;53468;48.276;14.416;2022-12-18T06:05:48;11.70;;;4.57;;
66609;SDS011;53468;48.276;14.416;2022-12-18T06:11:23;8.05;;;4.47;;
66609;SDS011;53468;48.276;14.416;2022-12-18T06:16:56;6.68;;;3.00;;
66609;SDS011;53468;48.276;14.416;2022-12-18T06:22:31;11.93;;;4.35;;
66609;SDS011;53468;48.276;14.416;2022-12-18T06:28:05;11.55;;;4.85;;
66609;SDS011;53468;48.276;14.416;2022-12-18T06:33:37;10.13;;;5.32;;
66609;SDS011;53468;48.276;14.416;2022-12-18T06:39:11;11.85;;;4.97;;
66609;SDS011;53468;48.276;14.416;2022-12-18T06:44:43;13.85;;;5.50;;
66609;SDS011;53468;48.276;14.416;2022-12-18T06:50:15;11.75;;;4.38;;
66609;SDS011;53468;48.276;14.416;2022-12-18T06:55:49;11.77;;;5.15;;
66609;SDS011;53468;48.276;14.416;2022-12-18T07:01:21;11.48;;;5.68;;
66609;SDS011;53468;48.276;14.416;2022-12-18T07:06:54;8.63;;;4.88;;
66609;SDS011;53468;48.276;14.416;2022-12-18T07:12:27;11.30;;;5.30;;
66609;SDS011;53468;48.276;14.416;2022-12-18T07:17:59;9.10;;;4.05;;
66609;SDS011;53468;48.276;14.416;2022-12-18T07:23:31;9.43;;;4.65;;
66609;SDS011;53468;48.276;14.416;2022-12-18T07:29:06;14.68;;;4.40;;
66609;SDS011;53468;48.276;14.416;2022-12-18T07:34:38;8.55;;;4.47;;
66609;SDS011;53468;48.276;14.416;2022-12-18T07:40:10;12.38;;;4.40;;
66609;SDS011;53468;48.276;14.416;2022-12-18T07:45:45;9.50;;;4.22;;
66609;SDS011;53468;48.276;14.416;2022-12-18T07:51:21;12.45;;;4.18;;
66609;SDS011;53468;48.276;14.416;2022-12-18T07:56:53;11.63;;;5.00;;
66609;SDS011;53468;48.276;14.416;2022-12-18T08:02:27;13.68;;;5.35;;
66609;SDS011;53468;48.276;14.416;2022-12-18T08:08:02;7.13;;;3.80;;
66609;SDS011;53468;48.276;14.416;2022-12-18T08:13:34;11.38;;;4.95;;
66609;SDS011;53468;48.276;14.416;2022-12-18T08:19:07;11.48;;;5.82;;
66609;SDS011;53468;48.276;14.416;2022-12-18T08:24:39;12.65;;;5.95;;
66609;SDS011;53468;48.276;14.416;2022-12-18T08:30:12;8.68;;;5.15;;
66609;SDS011;53468;48.276;14.416;2022-12-18T08:35:47;11.23;;;4.82;;
66609;SDS011;53468;48.276;14.416;2022-12-18T08:41:22;7.80;;;4.80;;
66609;SDS011;53468;48.276;14.416;2022-12-18T08:46:54;7.88;;;4.15;;
66609;SDS011;53468;48.276;14.416;2022-12-18T08:52:28;9.02;;;5.18;;
66609;SDS011;53468;48.276;14.416;2022-12-18T08:58:02;10.77;;;5.13;;
66609;SDS011;53468;48.276;14.416;2022-12-18T09:03:34;11.68;;;4.78;;
66609;SDS011;53468;48.276;14.416;2022-12-18T09:09:08;13.57;;;5.93;;
66609;SDS011;53468;48.276;14.416;2022-12-18T09:14:41;13.70;;;6.97;;
66609;SDS011;53468;48.276;14.416;2022-12-18T09:20:14;14.00;;;6.45;;
66609;SDS011;53468;48.276;14.416;2022-12-18T09:25:48;12.18;;;4.63;;
66609;SDS011;53468;48.276;14.416;2022-12-18T09:31:21;8.07;;;5.03;;
66609;SDS011;53468;48.276;14.416;2022-12-18T09:36:53;10.57;;;4.75;;
66609;SDS011;53468;48.276;14.416;2022-12-18T09:42:27;10.98;;;5.32;;
66609;SDS011;53468;48.276;14.416;2022-12-18T09:47:59;9.80;;;5.28;;
66609;SDS011;53468;48.276;14.416;2022-12-18T09:53:32;13.82;;;5.88;;
66609;SDS011;53468;48.276;14.416;2022-12-18T09:59:15;10.93;;;5.30;;
66609;SDS011;53468;48.276;14.416;2022-12-18T10:04:56;11.07;;;5.25;;
66609;SDS011;53468;48.276;14.416;2022-12-18T10:10:38;11.35;;;6.03;;
66609;SDS011;53468;48.276;14.416;2022-12-18T10:16:17;11.10;;;5.88;;
66609;SDS011;53468;48.276;14.416;2022-12-18T10:21:58;11.35;;;6.53;;
66609;SDS011;53468;48.276;14.416;2022-12-18T10:27:35;10.93;;;4.78;;
66609;SDS011;53468;48.276;14.416;2022-12-18T10:33:10;10.57;;;5.97;;
66609;SDS011;53468;48.276;14.416;2022-12-18T10:38:44;8.80;;;5.22;;
66609;SDS011;53468;48.276;14.416;2022-12-18T10:44:17;8.15;;;5.03;;
66609;SDS011;53468;48.276;14.416;2022-12-18T10:49:53;11.10;;;4.90;;
66609;SDS011;53468;48.276;14.416;2022-12-18T10:55:31;11.25;;;5.25;;
66609;SDS011;53468;48.276;14.416;2022-12-18T11:01:08;11.27;;;5.07;;
66609;SDS011;53468;48.276;14.416;2022-12-18T11:06:53;21.65;;;5.20;;
66609;SDS011;53468;48.276;14.416;2022-12-18T11:12:28;11.35;;;5.35;;
66609;SDS011;53468;48.276;14.416;2022-12-18T11:18:01;13.32;;;5.80;;
66609;SDS011;53468;48.276;14.416;2022-12-18T11:23:35;10.05;;;5.07;;
66609;SDS011;53468;48.276;14.416;2022-12-18T11:29:24;13.33;;;5.67;;
66609;SDS011;53468;48.276;14.416;2022-12-18T11:35:04;12.40;;;5.75;;
66609;SDS011;53468;48.276;14.416;2022-12-18T11:40:47;13.73;;;5.40;;
66609;SDS011;53468;48.276;14.416;2022-12-18T11:46:24;11.57;;;6.85;;
66609;SDS011;53468;48.276;14.416;2022-12-18T11:52:03;11.55;;;6.72;;
66609;SDS011;53468;48.276;14.416;2022-12-18T11:57:52;13.75;;;7.55;;
66609;SDS011;53468;48.276;14.416;2022-12-18T12:03:51;11.70;;;6.80;;
66609;SDS011;53468;48.276;14.416;2022-12-18T12:09:38;18.77;;;10.20;;
66609;SDS011;53468;48.276;14.416;2022-12-18T12:15:19;23.70;;;12.20;;
66609;SDS011;53468;48.276;14.416;2022-12-18T12:21:00;23.48;;;13.43;;
66609;SDS011;53468;48.276;14.416;2022-12-18T12:26:38;25.00;;;12.85;;
66609;SDS011;53468;48.276;14.416;2022-12-18T12:32:22;26.90;;;13.45;;
66609;SDS011;53468;48.276;14.416;2022-12-18T12:38:06;27.75;;;13.75;;
66609;SDS011;53468;48.276;14.416;2022-12-18T12:43:42;27.00;;;13.15;;
66609;SDS011;53468;48.276;14.416;2022-12-18T12:49:22;25.00;;;12.80;;
66609;SDS011;53468;48.276;14.416;2022-12-18T12:54:59;24.52;;;13.25;;
66609;SDS011;53468;48.276;14.416;2022-12-18T13:00:36;29.20;;;13.50;;
66609;SDS011;53468;48.276;14.416;2022-12-18T13:06:19;22.50;;;12.77;;
66609;SDS011;53468;48.276;14.416;2022-12-18T13:12:04;24.25;;;13.18;;
66609;SDS011;53468;48.276;14.416;2022-12-18T13:23:52;24.15;;;11.40;;
66609;SDS011;53468;48.276;14.416;2022-12-18T13:29:41;25.25;;;12.82;;
66609;SDS011;53468;48.276;14.416;2022-12-18T13:47:01;20.58;;;11.38;;
66609;SDS011;53468;48.276;14.416;2022-12-18T13:52:36;25.63;;;12.15;;
66609;SDS011;53468;48.276;14.416;2022-12-18T13:58:12;25.48;;;12.23;;
66609;SDS011;53468;48.276;14.416;2022-12-18T14:03:44;23.88;;;13.27;;
66609;SDS011;53468;48.276;14.416;2022-12-18T14:09:23;29.20;;;12.70;;
66609;SDS011;53468;48.276;14.416;2022-12-18T14:14:58;27.05;;;11.90;;
66609;SDS011;53468;48.276;14.416;2022-12-18T14:20:32;23.48;;;11.27;;
66609;SDS011;53468;48.276;14.416;2022-12-18T14:26:19;21.70;;;10.57;;
66609;SDS011;53468;48.276;14.416;2022-12-18T14:32:09;21.00;;;10.43;;
66609;SDS011;53468;48.276;14.416;2022-12-18T14:37:44;23.27;;;11.25;;
66609;SDS011;53468;48.276;14.416;2022-12-18T14:43:16;28.23;;;12.32;;
66609;SDS011;53468;48.276;14.416;2022-12-18T14:48:49;22.58;;;11.45;;
66609;SDS011;53468;48.276;14.416;2022-12-18T14:54:22;21.58;;;11.55;;
66609;SDS011;53468;48.276;14.416;2022-12-18T15:00:02;27.02;;;12.38;;
66609;SDS011;53468;48.276;14.416;2022-12-18T15:05:38;21.90;;;10.97;;
66609;SDS011;53468;48.276;14.416;2022-12-18T15:11:24;25.67;;;10.75;;
66609;SDS011;53468;48.276;14.416;2022-12-18T15:16:58;26.08;;;12.32;;
66609;SDS011;53468;48.276;14.416;2022-12-18T15:22:34;26.65;;;11.82;;
66609;SDS011;53468;48.276;14.416;2022-12-18T15:28:15;21.13;;;11.88;;
66609;SDS011;53468;48.276;14.416;2022-12-18T15:34:01;21.48;;;10.68;;
66609;SDS011;53468;48.276;14.416;2022-12-18T15:39:45;23.75;;;12.60;;
66609;SDS011;53468;48.276;14.416;2022-12-18T15:45:18;24.33;;;11.50;;
66609;SDS011;53468;48.276;14.416;2022-12-18T15:50:50;28.52;;;13.30;;
66609;SDS011;53468;48.276;14.416;2022-12-18T15:56:25;29.23;;;13.85;;
66609;SDS011;53468;48.276;14.416;2022-12-18T16:02:15;25.05;;;12.10;;
66609;SDS011;53468;48.276;14.416;2022-12-18T16:07:48;30.38;;;13.70;;
66609;SDS011;53468;48.276;14.416;2022-12-18T16:13:22;26.13;;;13.48;;
66609;SDS011;53468;48.276;14.416;2022-12-18T16:18:54;33.30;;;15.70;;
66609;SDS011;53468;48.276;14.416;2022-12-18T16:24:27;28.77;;;13.75;;
66609;SDS011;53468;48.276;14.416;2022-12-18T16:30:02;25.67;;;12.80;;
66609;SDS011;53468;48.276;14.416;2022-12-18T16:35:34;30.95;;;13.63;;
66609;SDS011;53468;48.276;14.416;2022-12-18T16:41:14;30.48;;;13.45;;
66609;SDS011;53468;48.276;14.416;2022-12-18T16:47:07;25.08;;;12.50;;
66609;SDS011;53468;48.276;14.416;2022-12-18T16:52:39;26.52;;;12.27;;
66609;SDS011;53468;48.276;14.416;2022-12-18T16:58:11;28.80;;;14.48;;
66609;SDS011;53468;48.276;14.416;2022-12-18T17:03:45;32.38;;;13.18;;
66609;SDS011;53468;48.276;14.416;2022-12-18T17:09:22;25.73;;;11.88;;
66609;SDS011;53468;48.276;14.416;2022-12-18T17:14:55;29.77;;;12.73;;
66609;SDS011;53468;48.276;14.416;2022-12-18T17:20:30;26.55;;;14.00;;
66609;SDS011;53468;48.276;14.416;2022-12-18T17:26:02;23.58;;;12.05;;
66609;SDS011;53468;48.276;14.416;2022-12-18T17:31:37;29.13;;;14.05;;
66609;SDS011;53468;48.276;14.416;2022-12-18T17:37:11;24.92;;;12.85;;
66609;SDS011;53468;48.276;14.416;2022-12-18T17:42:43;24.00;;;12.30;;
66609;SDS011;53468;48.276;14.416;2022-12-18T17:48:15;28.02;;;12.93;;
66609;SDS011;53468;48.276;14.416;2022-12-18T17:53:49;24.77;;;12.70;;
66609;SDS011;53468;48.276;14.416;2022-12-18T17:59:21;29.00;;;11.52;;
66609;SDS011;53468;48.276;14.416;2022-12-18T18:04:53;26.35;;;11.45;;
66609;SDS011;53468;48.276;14.416;2022-12-18T18:10:27;27.17;;;11.70;;
66609;SDS011;53468;48.276;14.416;2022-12-18T18:15:59;37.20;;;12.98;;
66609;SDS011;53468;48.276;14.416;2022-12-18T18:21:32;25.50;;;12.02;;
66609;SDS011;53468;48.276;14.416;2022-12-18T18:27:06;28.40;;;11.50;;
66609;SDS011;53468;48.276;14.416;2022-12-18T18:32:38;21.02;;;10.55;;
66609;SDS011;53468;48.276;14.416;2022-12-18T18:38:11;25.10;;;12.23;;
66609;SDS011;53468;48.276;14.416;2022-12-18T18:43:45;23.08;;;11.32;;
66609;SDS011;53468;48.276;14.416;2022-12-18T18:49:17;29.67;;;13.10;;
66609;SDS011;53468;48.276;14.416;2022-12-18T18:54:50;23.55;;;11.23;;
66609;SDS011;53468;48.276;14.416;2022-12-18T19:00:23;24.63;;;11.38;;
66609;SDS011;53468;48.276;14.416;2022-12-18T19:05:57;25.20;;;11.60;;
66609;SDS011;53468;48.276;14.416;2022-12-18T19:11:31;27.15;;;12.05;;
66609;SDS011;53468;48.276;14.416;2022-12-18T19:17:22;27.00;;;13.75;;
66609;SDS011;53468;48.276;14.416;2022-12-18T19:22:55;24.52;;;12.50;;
66609;SDS011;53468;48.276;14.416;2022-12-18T19:28:27;21.60;;;10.93;;
66609;SDS011;53468;48.276;14.416;2022-12-18T19:34:01;28.10;;;11.52;;
66609;SDS011;53468;48.276;14.416;2022-12-18T19:39:34;25.95;;;12.88;;
66609;SDS011;53468;48.276;14.416;2022-12-18T19:45:06;29.75;;;13.00;;
66609;SDS011;53468;48.276;14.416;2022-12-18T19:50:40;28.25;;;12.95;;
66609;SDS011;53468;48.276;14.416;2022-12-18T19:56:13;29.83;;;14.98;;
66609;SDS011;53468;48.276;14.416;2022-12-18T20:01:47;27.90;;;13.43;;
66609;SDS011;53468;48.276;14.416;2022-12-18T20:07:20;28.38;;;12.95;;
66609;SDS011;53468;48.276;14.416;2022-12-18T20:12:53;29.33;;;13.18;;
66609;SDS011;53468;48.276;14.416;2022-12-18T20:18:25;26.85;;;12.95;;
66609;SDS011;53468;48.276;14.416;2022-12-18T20:23:59;29.33;;;13.73;;
66609;SDS011;53468;48.276;14.416;2022-12-18T20:29:31;29.15;;;11.88;;
66609;SDS011;53468;48.276;14.416;2022-12-18T20:35:04;23.58;;;11.50;;
66609;SDS011;53468;48.276;14.416;2022-12-18T20:40:40;23.20;;;12.35;;
66609;SDS011;53468;48.276;14.416;2022-12-18T20:46:12;25.05;;;11.98;;
66609;SDS011;53468;48.276;14.416;2022-12-18T20:51:48;21.50;;;10.55;;
66609;SDS011;53468;48.276;14.416;2022-12-18T20:57:23;24.98;;;13.27;;
66609;SDS011;53468;48.276;14.416;2022-12-18T21:02:55;25.25;;;12.68;;
66609;SDS011;53468;48.276;14.416;2022-12-18T21:08:27;23.55;;;10.75;;
66609;SDS011;53468;48.276;14.416;2022-12-18T21:14:01;20.30;;;10.60;;
66609;SDS011;53468;48.276;14.416;2022-12-18T21:19:34;25.95;;;12.10;;
66609;SDS011;53468;48.276;14.416;2022-12-18T21:25:07;22.25;;;11.18;;
66609;SDS011;53468;48.276;14.416;2022-12-18T21:30:41;26.85;;;11.85;;
66609;SDS011;53468;48.276;14.416;2022-12-18T21:36:13;22.02;;;10.40;;
66609;SDS011;53468;48.276;14.416;2022-12-18T21:41:45;23.55;;;10.35;;
66609;SDS011;53468;48.276;14.416;2022-12-18T21:47:37;21.17;;;10.13;;
66609;SDS011;53468;48.276;14.416;2022-12-18T21:53:09;22.63;;;9.93;;
66609;SDS011;53468;48.276;14.416;2022-12-18T21:58:41;21.80;;;10.93;;
66609;SDS011;53468;48.276;14.416;2022-12-18T22:04:15;22.42;;;10.35;;
66609;SDS011;53468;48.276;14.416;2022-12-18T22:09:47;24.33;;;9.88;;
66609;SDS011;53468;48.276;14.416;2022-12-18T22:15:19;21.05;;;9.25;;
66609;SDS011;53468;48.276;14.416;2022-12-18T22:21:00;22.80;;;9.82;;
66609;SDS011;53468;48.276;14.416;2022-12-18T22:26:33;17.85;;;7.93;;
66609;SDS011;53468;48.276;14.416;2022-12-18T22:32:06;23.95;;;10.35;;
66609;SDS011;53468;48.276;14.416;2022-12-18T22:37:41;22.90;;;9.52;;
66609;SDS011;53468;48.276;14.416;2022-12-18T22:43:14;16.92;;;8.32;;
66609;SDS011;53468;48.276;14.416;2022-12-18T22:48:46;19.15;;;9.18;;
66609;SDS011;53468;48.276;14.416;2022-12-18T22:54:19;25.83;;;11.02;;
66609;SDS011;53468;48.276;14.416;2022-12-18T22:59:52;17.35;;;9.13;;
66609;SDS011;53468;48.276;14.416;2022-12-18T23:05:24;23.13;;;9.55;;
66609;SDS011;53468;48.276;14.416;2022-12-18T23:10:58;25.30;;;10.45;;
66609;SDS011;53468;48.276;14.416;2022-12-18T23:16:30;19.13;;;11.18;;
66609;SDS011;53468;48.276;14.416;2022-12-18T23:22:04;20.25;;;9.40;;
66609;SDS011;53468;48.276;14.416;2022-12-18T23:27:37;22.75;;;9.70;;
66609;SDS011;53468;48.276;14.416;2022-12-18T23:33:09;17.88;;;9.02;;
66609;SDS011;53468;48.276;14.416;2022-12-18T23:38:41;23.20;;;8.60;;
66609;SDS011;53468;48.276;14.416;2022-12-18T23:44:19;18.10;;;8.77;;
66609;SDS011;53468;48.276;14.416;2022-12-18T23:49:51;21.90;;;8.95;;
66609;SDS011;53468;48.276;14.416;2022-12-18T23:55:23;27.77;;;10.65;;
